createdAt,value
2023-05-07T00:01:12.139Z,4.35
2023-05-07T00:06:13.982Z,4.60
2023-05-07T00:11:15.907Z,4.05
2023-05-07T00:16:17.828Z,5.00
2023-05-07T00:21:19.673Z,4.53
2023-05-07T00:26:22.032Z,5.65
2023-05-07T00:31:25.909Z,4.75
2023-05-07T00:36:28.069Z,4.70
2023-05-07T00:41:31.631Z,4.82
2023-05-07T00:46:34.025Z,4.97
2023-05-07T00:51:36.111Z,4.93
2023-05-07T00:56:39.008Z,4.20
2023-05-07T01:01:41.126Z,5.10
2023-05-07T01:06:45.549Z,4.43
2023-05-07T01:11:49.084Z,5.15
2023-05-07T01:16:52.229Z,5.20
2023-05-07T01:22:03.203Z,4.97
2023-05-07T01:27:06.377Z,5.25
2023-05-07T01:32:11.097Z,4.57
2023-05-07T01:37:14.068Z,4.68
2023-05-07T01:42:16.175Z,5.00
2023-05-07T01:47:18.218Z,4.57
2023-05-07T01:52:20.163Z,4.68
2023-05-07T01:57:22.120Z,4.65
2023-05-07T02:02:24.147Z,4.32
2023-05-07T02:07:27.138Z,4.38
2023-05-07T02:12:29.906Z,4.93
2023-05-07T02:17:33.035Z,5.07
2023-05-07T02:22:35.386Z,5.03
2023-05-07T02:27:37.220Z,5.13
2023-05-07T02:32:39.772Z,3.95
2023-05-07T02:37:41.632Z,4.80
2023-05-07T02:42:43.664Z,4.75
2023-05-07T02:47:45.708Z,4.40
2023-05-07T02:52:48.387Z,4.50
2023-05-07T02:57:50.318Z,5.03
2023-05-07T03:02:52.284Z,4.95
2023-05-07T03:07:54.527Z,4.80
2023-05-07T03:12:56.625Z,4.07
2023-05-07T03:17:58.690Z,4.25
2023-05-07T03:23:02.027Z,4.80
2023-05-07T03:28:03.971Z,4.38
2023-05-07T03:33:17.817Z,4.00
2023-05-07T03:38:20.076Z,4.22
2023-05-07T03:43:22.338Z,4.82
2023-05-07T03:48:31.371Z,4.65
2023-05-07T03:53:34.636Z,5.15
2023-05-07T03:58:36.766Z,4.10
2023-05-07T04:03:43.463Z,4.00
2023-05-07T04:08:45.504Z,4.35
2023-05-07T04:13:48.760Z,4.38
2023-05-07T04:18:54.585Z,3.92
2023-05-07T04:23:57.254Z,3.30
2023-05-07T04:29:00.286Z,3.30
2023-05-07T04:34:07.229Z,3.88
2023-05-07T04:39:09.322Z,3.55
2023-05-07T04:44:11.952Z,3.92
2023-05-07T04:49:13.845Z,3.33
2023-05-07T04:54:16.316Z,3.80
2023-05-07T04:59:18.298Z,3.75
2023-05-07T05:04:20.358Z,4.03
2023-05-07T05:09:23.053Z,3.60
2023-05-07T05:14:25.368Z,3.42
2023-05-07T05:19:28.317Z,4.13
2023-05-07T05:24:30.311Z,3.38
2023-05-07T05:29:32.877Z,2.92
2023-05-07T05:34:34.925Z,4.15
2023-05-07T05:39:38.032Z,4.05
2023-05-07T05:44:41.569Z,3.75
2023-05-07T05:49:44.488Z,4.25
2023-05-07T05:54:50.650Z,4.57
2023-05-07T05:59:53.225Z,3.95
2023-05-07T06:04:55.180Z,4.13
2023-05-07T06:09:58.833Z,5.03
2023-05-07T06:15:00.870Z,4.57
2023-05-07T06:20:02.837Z,5.18
2023-05-07T06:25:06.454Z,4.15
2023-05-07T06:30:09.766Z,4.53
2023-05-07T06:35:11.947Z,5.75
2023-05-07T06:40:15.613Z,4.15
2023-05-07T06:45:19.042Z,4.57
2023-05-07T06:50:20.944Z,4.53
2023-05-07T06:55:23.813Z,4.72
2023-05-07T07:00:26.311Z,4.43
2023-05-07T07:05:31.051Z,4.78
2023-05-07T07:10:34.218Z,5.50
2023-05-07T07:15:37.604Z,5.75
2023-05-07T07:20:39.573Z,5.93
2023-05-07T07:25:43.472Z,5.90
2023-05-07T07:30:46.384Z,7.10
2023-05-07T07:35:48.438Z,6.38
2023-05-07T07:40:50.577Z,6.07
2023-05-07T07:45:53.055Z,6.63
2023-05-07T07:50:56.051Z,6.80
2023-05-07T07:55:59.681Z,5.90
2023-05-07T08:01:05.509Z,5.80
2023-05-07T08:06:07.459Z,6.43
2023-05-07T08:11:11.110Z,6.80
2023-05-07T08:16:13.508Z,7.32
2023-05-07T08:21:15.926Z,7.20
2023-05-07T08:26:18.084Z,7.20
2023-05-07T08:31:20.217Z,6.00
2023-05-07T08:36:22.523Z,6.50
2023-05-07T08:41:24.580Z,6.60
2023-05-07T08:46:29.992Z,7.18
2023-05-07T08:51:32.438Z,6.65
2023-05-07T08:56:34.791Z,7.22
2023-05-07T09:01:37.097Z,7.18
2023-05-07T09:06:42.745Z,7.78
2023-05-07T09:11:46.426Z,8.30
2023-05-07T09:16:50.726Z,9.43
2023-05-07T09:22:03.803Z,9.73
2023-05-07T09:27:14.522Z,9.85
2023-05-07T09:32:19.805Z,10.38
2023-05-07T09:37:22.396Z,10.63
2023-05-07T09:42:26.575Z,11.02
2023-05-07T09:47:33.593Z,12.27
2023-05-07T09:52:37.164Z,11.55
2023-05-07T09:57:43.092Z,11.20
2023-05-07T10:02:49.414Z,11.50
2023-05-07T10:07:54.087Z,11.30
2023-05-07T10:12:58.251Z,11.23
2023-05-07T10:18:07.684Z,11.00
2023-05-07T10:23:15.527Z,11.73
2023-05-07T10:28:25.095Z,12.30
2023-05-07T10:33:31.300Z,11.50
2023-05-07T10:38:35.097Z,11.73
2023-05-07T10:43:43.070Z,11.75
2023-05-07T10:49:01.813Z,11.90
2023-05-07T10:54:13.770Z,11.95
2023-05-07T10:59:28.324Z,11.90
2023-05-07T11:04:36.168Z,12.70
2023-05-07T11:10:05.269Z,12.50
2023-05-07T11:15:40.407Z,13.15
2023-05-07T11:20:52.373Z,13.13
2023-05-07T11:26:15.374Z,13.38
2023-05-07T11:31:23.464Z,13.40
2023-05-07T11:36:27.176Z,13.20
2023-05-07T11:41:38.251Z,13.55
2023-05-07T11:46:44.971Z,13.63
2023-05-07T11:51:47.785Z,13.65
2023-05-07T11:56:50.419Z,13.70
2023-05-07T12:01:52.288Z,14.32
2023-05-07T12:06:57.246Z,13.93
2023-05-07T12:12:05.157Z,14.15
2023-05-07T12:17:11.247Z,13.98
2023-05-07T12:22:13.892Z,13.27
2023-05-07T12:27:16.859Z,13.55
2023-05-07T12:32:20.264Z,13.60
2023-05-07T12:37:27.557Z,14.48
2023-05-07T12:42:37.311Z,13.30
2023-05-07T12:47:39.289Z,13.73
2023-05-07T12:52:41.593Z,13.60
2023-05-07T12:57:48.657Z,13.40
2023-05-07T13:02:50.707Z,13.38
2023-05-07T13:07:59.088Z,13.35
2023-05-07T13:13:01.082Z,14.40
2023-05-07T13:18:03.759Z,13.20
2023-05-07T13:23:05.734Z,13.40
2023-05-07T13:28:11.207Z,13.52
2023-05-07T13:33:13.727Z,13.63
2023-05-07T13:38:17.034Z,13.77
2023-05-07T13:43:19.898Z,14.18
2023-05-07T13:48:21.783Z,13.90
2023-05-07T13:53:23.606Z,13.95
2023-05-07T13:58:25.464Z,14.48
2023-05-07T14:03:27.390Z,14.18
2023-05-07T14:08:31.818Z,14.07
2023-05-07T14:13:35.428Z,13.25
2023-05-07T14:18:38.248Z,13.40
2023-05-07T14:23:40.156Z,13.52
2023-05-07T14:28:47.206Z,13.30
2023-05-07T14:33:50.848Z,13.80
2023-05-07T14:38:55.110Z,13.68
2023-05-07T14:43:57.034Z,14.15
2023-05-07T14:48:58.900Z,14.10
2023-05-07T14:54:01.497Z,13.63
2023-05-07T14:59:04.633Z,13.63
2023-05-07T15:04:07.035Z,14.40
2023-05-07T15:09:10.006Z,13.25
2023-05-07T15:14:11.866Z,13.65
2023-05-07T15:19:15.928Z,13.32
2023-05-07T15:24:17.823Z,13.45
2023-05-07T15:29:19.776Z,13.40
2023-05-07T15:34:22.793Z,13.98
2023-05-07T15:39:25.880Z,13.60
2023-05-07T15:44:29.631Z,13.95
2023-05-07T15:49:31.565Z,13.57
2023-05-07T15:54:33.506Z,14.02
2023-05-07T15:59:36.204Z,13.70
2023-05-07T16:04:38.135Z,13.68
2023-05-07T16:09:40.034Z,14.35
2023-05-07T16:14:41.951Z,13.73
2023-05-07T16:19:43.908Z,13.35
2023-05-07T16:24:46.169Z,14.10
2023-05-07T16:29:48.314Z,13.82
2023-05-07T16:34:50.172Z,13.73
2023-05-07T16:39:52.085Z,12.93
2023-05-07T16:44:54.826Z,13.05
2023-05-07T16:49:56.672Z,13.45
2023-05-07T16:55:01.454Z,13.73
2023-05-07T17:00:07.500Z,13.48
2023-05-07T17:05:09.951Z,12.95
2023-05-07T17:10:12.005Z,12.68
2023-05-07T17:15:14.189Z,11.60
2023-05-07T17:20:16.371Z,12.05
2023-05-07T17:25:18.331Z,11.38
2023-05-07T17:30:20.323Z,11.50
2023-05-07T17:35:22.161Z,11.05
2023-05-07T17:40:24.024Z,11.15
2023-05-07T17:45:26.020Z,10.93
2023-05-07T17:50:28.442Z,10.82
2023-05-07T17:55:30.630Z,10.90
2023-05-07T18:00:32.604Z,10.40
2023-05-07T18:05:37.927Z,9.85
2023-05-07T18:10:40.093Z,10.10
2023-05-07T18:15:42.188Z,9.00
2023-05-07T18:20:49.402Z,9.32
2023-05-07T18:25:51.306Z,8.13
2023-05-07T18:30:53.101Z,7.75
2023-05-07T18:35:55.006Z,7.63
2023-05-07T18:41:04.506Z,7.53
2023-05-07T18:46:06.718Z,7.50
2023-05-07T18:51:12.632Z,6.80
2023-05-07T18:56:14.622Z,6.90
2023-05-07T19:01:16.636Z,6.15
2023-05-07T19:06:18.567Z,6.00
2023-05-07T19:11:20.916Z,6.50
2023-05-07T19:16:23.081Z,5.88
2023-05-07T19:21:25.602Z,6.60
2023-05-07T19:26:27.525Z,5.95
2023-05-07T19:31:30.581Z,6.53
2023-05-07T19:36:34.571Z,5.68
2023-05-07T19:41:36.528Z,6.10
2023-05-07T19:46:40.551Z,5.80
2023-05-07T19:51:42.514Z,5.65
2023-05-07T19:56:44.341Z,6.53
2023-05-07T20:01:46.229Z,5.45
2023-05-07T20:06:48.081Z,5.60
2023-05-07T20:11:50.090Z,5.50
2023-05-07T20:16:52.000Z,5.32
2023-05-07T20:21:53.941Z,5.22
2023-05-07T20:26:55.819Z,5.13
2023-05-07T20:31:57.799Z,5.30
2023-05-07T20:37:00.362Z,5.35
2023-05-07T20:42:02.257Z,5.13
2023-05-07T20:47:04.378Z,5.32
2023-05-07T20:52:06.195Z,5.72
2023-05-07T20:57:08.015Z,5.30
2023-05-07T21:02:09.856Z,4.75
2023-05-07T21:07:12.763Z,5.00
2023-05-07T21:12:14.575Z,4.95
2023-05-07T21:17:16.469Z,5.28
2023-05-07T21:22:18.316Z,4.45
2023-05-07T21:27:20.439Z,4.28
2023-05-07T21:32:22.276Z,4.22
2023-05-07T21:37:24.113Z,4.80
2023-05-07T21:42:27.049Z,4.55
2023-05-07T21:47:28.872Z,4.40
2023-05-07T21:52:30.811Z,4.05
2023-05-07T21:57:33.199Z,4.40
2023-05-07T22:02:35.221Z,4.22
2023-05-07T22:07:37.363Z,5.00
2023-05-07T22:12:39.881Z,5.72
2023-05-07T22:17:41.796Z,6.07
2023-05-07T22:22:52.713Z,6.45
2023-05-07T22:27:54.897Z,5.97
2023-05-07T22:32:56.797Z,6.50
2023-05-07T22:37:58.638Z,6.22
2023-05-07T22:43:00.539Z,7.43
2023-05-07T22:48:02.498Z,7.20
2023-05-07T22:53:05.145Z,6.93
2023-05-07T22:58:08.012Z,7.05
2023-05-07T23:03:09.927Z,7.30
2023-05-07T23:08:12.273Z,6.97
2023-05-07T23:13:17.550Z,6.57
2023-05-07T23:18:19.753Z,6.78
2023-05-07T23:23:21.764Z,6.80
2023-05-07T23:28:23.604Z,6.95
2023-05-07T23:33:25.577Z,6.18
2023-05-07T23:38:27.508Z,6.22
2023-05-07T23:43:29.310Z,6.43
2023-05-07T23:48:31.158Z,6.60
2023-05-07T23:53:33.036Z,6.20
2023-05-07T23:58:34.866Z,6.63
